Alamogordo White Sands Regional Airport
KALM : now visible

Airfield :











YOU CAN JOIN US ON...

 
LOGIN :

Register | Disclaimer

   EN    FR    IT 

 









Legend :    VFR   Marginal VFR   IFR   Intensive IFR   Very Intensive IFR
Visi :
Ceiling :
>= 8 km
>= 3000ft
5 to 8 km
1000 to 3000 ft
1500m to 5 km
500 to 1000 ft
800 to 1500m
200 to 500 ft
< 800m
< 200 ft
Symbols :   Thunderstorms  Fog  Heavy snow  Heavy precipitations  Wind > 20 kt






- Airport Elevation : 4200 ft
- IATA code : ALM


KALM - Alamogordo White Sands Regional

CURRENT METAR :
  • 170235Z AUTO 21008KT 10SM CLR 32/M10 A2976 RMK AO2

EXPIRED METARs :
  • 170215Z AUTO 22009KT 10SM CLR 34/M10 A2976 RMK AO2
  • 170155Z AUTO 23009G15KT 10SM CLR 35/M10 A2975 RMK AO2
  • 170135Z AUTO 21008G13KT 10SM CLR 36/M09 A2975 RMK AO2
  • 170115Z AUTO 23007KT 10SM CLR 37/M09 A2974 RMK AO2
  • 170055Z AUTO 20009G16KT 10SM CLR 37/M09 A2974 RMK AO2
  • 170035Z AUTO 21015KT 10SM CLR 38/M09 A2974 RMK AO2
  • 170015Z AUTO VRB06G14KT 10SM CLR 38/M10 A2974 RMK AO2
  • 162355Z AUTO 21014KT 10SM CLR 38/M09 A2975 RMK AO2
  • 162335Z AUTO 20007G16KT 180V240 10SM CLR 38/M09 A2975 RMK AO2
  • 162315Z AUTO 23010G17KT 10SM CLR 39/M09 A2976 RMK AO2
  • 162255Z AUTO 23007G19KT 180V280 10SM CLR 39/M10 A2977 RMK AO2
  • 162215Z AUTO 23007G13KT 10SM CLR 38/M07 A2978 RMK AO2
  • 162155Z AUTO 25013G21KT 10SM CLR 39/M08 A2978 RMK AO2
  • 162135Z AUTO VRB05G15KT 10SM CLR 39/M07 A2979 RMK AO2

TAF N/A
KZAB FIR / North America



MET'MAP, your aeronautical weather chart ! - Copyright ORBIFLY December 2007 - Disclaimer

ORBIFLY MET'MAP TEAM :

Programming & Development : Alexandra Zaïnal
Original concept : Baudouin d'Aumeries
Technical & hardware support : Manuel Goepfert
Assistance : Marc-Olivier Méhu




SOURCES & CREDITS :

   NOAA       Earth
Advisory